Time;durP1;ratioP1;P1;durP2;ratioP2;P2;SDS_P1;SDS_P2;PMS_P1;PMS_P2;Temp;Humidity;BMP_temperature;BMP_pressure;BME280_temperature;BME280_humidity;BME280_pressure;Samples;Min_cycle;Max_cycle;Signal;HPM_P1;HPM_P2
2021/10/02 00:38:12;;;;;;;4.25;1.45;;;14.70;99.90;;;;;;4172141;28;20045;-72
2021/10/02 00:44:55;;;;;;;1.50;1.00;;;14.70;99.90;;;;;;4171428;28;20489;-72
2021/10/02 00:46:55;;;;;;;2.60;1.35;;;14.70;99.90;;;;;;4173346;28;20065;-73
2021/10/02 00:48:57;;;;;;;1.65;1.13;;;14.70;99.90;;;;;;4171816;28;20040;-72
2021/10/02 00:51:00;;;;;;;2.80;1.10;;;14.70;99.90;;;;;;4169486;28;20030;-73
2021/10/02 00:53:00;;;;;;;;;;;14.70;99.90;;;;;;4174447;28;20531;-72
2021/10/02 00:55:01;;;;;;;4.10;1.40;;;14.70;99.90;;;;;;4172488;28;19928;-72
2021/10/02 00:57:02;;;;;;;2.25;1.27;;;14.70;99.90;;;;;;4175959;28;20044;-72
2021/10/02 00:59:03;;;;;;;2.87;0.97;;;14.70;99.90;;;;;;4177546;28;20041;-72
2021/10/02 01:01:05;;;;;;;2.33;1.10;;;14.70;99.90;;;;;;4180188;28;20037;-72
2021/10/02 01:03:34;;;;;;;4.22;1.20;;;14.80;99.90;;;;;;4178053;28;20090;-72
2021/10/02 01:05:52;;;;;;;2.47;1.23;;;14.80;99.90;;;;;;4170992;28;20035;-72
2021/10/02 01:08:18;;;;;;;1.63;1.00;;;14.80;99.90;;;;;;4172760;28;20474;-72
2021/10/02 01:10:48;;;;;;;2.78;1.30;;;14.80;99.90;;;;;;4172327;28;20053;-72
2021/10/02 01:13:02;;;;;;;1.90;1.35;;;14.80;99.90;;;;;;4172021;28;20033;-73
2021/10/02 01:15:06;;;;;;;3.45;1.27;;;14.70;99.90;;;;;;4174667;28;20119;-72
2021/10/02 01:17:33;;;;;;;1.73;1.05;;;14.80;99.90;;;;;;4178818;28;20044;-73
2021/10/02 01:19:55;;;;;;;2.22;1.05;;;14.80;99.90;;;;;;4177040;28;20052;-72
2021/10/02 01:22:25;;;;;;;2.78;1.20;;;14.80;99.90;;;;;;4173677;28;20048;-73
2021/10/02 01:25:10;;;;;;;2.83;1.50;;;14.80;99.90;;;;;;4175466;28;20039;-73
2021/10/02 01:27:40;;;;;;;1.60;1.20;;;14.80;99.90;;;;;;4172702;28;20116;-72
2021/10/02 01:29:43;;;;;;;1.58;1.15;;;14.80;99.90;;;;;;4174880;28;20570;-72
2021/10/02 01:32:08;;;;;;;1.80;1.23;;;14.80;99.90;;;;;;4174307;28;20037;-72
2021/10/02 01:34:23;;;;;;;2.20;1.15;;;14.80;99.90;;;;;;4171844;28;20037;-72
2021/10/02 01:36:57;;;;;;;1.67;1.10;;;14.80;99.90;;;;;;4168694;28;20463;-73
2021/10/02 01:48:27;;;;;;;2.53;1.50;;;14.80;99.90;;;;;;4170422;28;21906;-72
2021/10/02 01:50:31;;;;;;;1.25;1.00;;;14.80;99.90;;;;;;4168932;28;20045;-72
2021/10/02 01:52:35;;;;;;;1.42;1.08;;;14.80;99.90;;;;;;4173569;28;20120;-73
2021/10/02 01:54:37;;;;;;;3.05;1.25;;;14.80;99.90;;;;;;4171271;28;20040;-72
2021/10/02 01:56:40;;;;;;;1.90;1.13;;;14.80;99.90;;;;;;4171933;28;20103;-73
2021/10/02 01:58:42;;;;;;;1.73;1.08;;;14.90;99.90;;;;;;4170806;28;20033;-72
2021/10/02 02:00:48;;;;;;;2.80;1.15;;;14.90;99.90;;;;;;4167952;28;20087;-72
2021/10/02 02:02:55;;;;;;;1.10;1.00;;;14.90;99.90;;;;;;4171029;28;20041;-72
2021/10/02 02:04:57;;;;;;;1.30;1.20;;;14.90;99.90;;;;;;4171566;28;20474;-72
2021/10/02 02:06:58;;;;;;;3.25;1.30;;;14.90;99.90;;;;;;4168676;28;20090;-72
2021/10/02 02:09:00;;;;;;;2.17;1.20;;;14.90;99.90;;;;;;4170877;28;20500;-72
2021/10/02 02:11:01;;;;;;;1.30;0.98;;;14.90;99.90;;;;;;4150240;28;20158;-72
2021/10/02 02:13:03;;;;;;;2.20;1.38;;;14.90;99.90;;;;;;4180090;28;20032;-72
2021/10/02 02:15:08;;;;;;;3.58;1.40;;;14.90;99.90;;;;;;4165702;28;20434;-73
2021/10/02 02:17:11;;;;;;;1.58;1.10;;;14.90;99.90;;;;;;4171954;28;20021;-72
2021/10/02 02:19:12;;;;;;;1.13;1.00;;;14.90;99.90;;;;;;4168480;28;20044;-72
2021/10/02 02:21:14;;;;;;;1.92;1.30;;;14.90;99.90;;;;;;4168902;28;20022;-72
2021/10/02 02:23:15;;;;;;;1.02;0.90;;;14.90;99.90;;;;;;4172292;28;20063;-72
2021/10/02 02:25:17;;;;;;;2.50;1.17;;;14.90;99.90;;;;;;4166980;28;20094;-72
2021/10/02 02:27:18;;;;;;;1.77;1.10;;;14.90;99.90;;;;;;4172436;28;20725;-73
2021/10/02 02:29:19;;;;;;;1.70;1.00;;;15.00;99.90;;;;;;4167732;28;20116;-73
2021/10/02 02:31:20;;;;;;;1.33;1.10;;;15.00;99.90;;;;;;4170847;28;20045;-72
2021/10/02 02:33:20;;;;;;;2.35;1.40;;;15.00;99.90;;;;;;4170051;28;20033;-73
2021/10/02 02:35:23;;;;;;;1.65;1.33;;;15.00;99.90;;;;;;4167747;28;20037;-72
2021/10/02 02:37:23;;;;;;;2.13;1.50;;;15.00;99.90;;;;;;4171114;28;20029;-73
2021/10/02 02:39:25;;;;;;;3.70;1.50;;;14.90;99.90;;;;;;4172315;28;20389;-72
2021/10/02 02:41:26;;;;;;;1.58;1.10;;;15.00;99.90;;;;;;4170023;28;20051;-73
2021/10/02 02:43:32;;;;;;;5.28;1.50;;;15.00;99.90;;;;;;4171105;28;20041;-72
2021/10/02 02:45:32;;;;;;;1.67;1.27;;;15.00;99.90;;;;;;4170045;28;20029;-72
2021/10/02 02:47:39;;;;;;;2.05;1.50;;;15.00;99.90;;;;;;4171430;28;20035;-72
2021/10/02 02:49:54;;;;;;;2.03;1.10;;;15.00;99.90;;;;;;4170468;28;20025;-72
2021/10/02 02:52:00;;;;;;;1.77;1.35;;;15.00;99.90;;;;;;4174641;28;20048;-72
2021/10/02 02:54:18;;;;;;;2.08;1.15;;;15.00;99.90;;;;;;4171103;28;20041;-72
2021/10/02 02:56:34;;;;;;;1.40;1.02;;;15.00;99.90;;;;;;4176797;28;20044;-72
2021/10/02 02:58:38;;;;;;;2.88;1.00;;;15.00;99.90;;;;;;4176186;28;20127;-72
2021/10/02 03:00:52;;;;;;;1.65;1.10;;;15.00;99.90;;;;;;4166912;28;20193;-72
2021/10/02 03:02:55;;;;;;;;;;;15.00;99.90;;;;;;4150788;28;20032;-72
2021/10/02 03:04:57;;;;;;;1.63;1.05;;;15.10;99.90;;;;;;4150517;28;19921;-72
2021/10/02 03:07:00;;;;;;;1.93;1.37;;;15.10;99.90;;;;;;4153579;28;20087;-72
2021/10/02 03:09:01;;;;;;;1.70;1.13;;;15.10;99.90;;;;;;4153908;28;20075;-73
2021/10/02 03:11:04;;;;;;;1.42;1.30;;;15.10;99.90;;;;;;4155595;28;20040;-72
2021/10/02 03:13:09;;;;;;;1.65;1.17;;;15.10;99.90;;;;;;4153363;28;20595;-72
2021/10/02 03:15:14;;;;;;;2.17;1.35;;;15.10;99.90;;;;;;4153122;28;21201;-72
2021/10/02 03:17:16;;;;;;;2.40;1.35;;;15.10;99.90;;;;;;4152112;28;20474;-72
2021/10/02 03:19:18;;;;;;;2.35;1.08;;;15.10;99.90;;;;;;4153741;28;20095;-72
2021/10/02 03:21:21;;;;;;;1.73;1.10;;;15.10;99.90;;;;;;4149995;28;20463;-73
2021/10/02 03:23:23;;;;;;;4.22;1.13;;;15.10;99.90;;;;;;4154023;28;20100;-72
2021/10/02 03:25:28;;;;;;;;;;;15.10;99.90;;;;;;4167501;28;20037;-72
2021/10/02 03:27:30;;;;;;;2.13;1.13;;;15.10;99.90;;;;;;4163298;28;19947;-73
2021/10/02 03:29:31;;;;;;;1.15;0.90;;;15.10;99.90;;;;;;4170889;28;20064;-72
2021/10/02 03:31:34;;;;;;;1.42;1.00;;;15.10;99.90;;;;;;4169526;28;20037;-73
2021/10/02 03:33:36;;;;;;;1.95;1.10;;;15.10;99.90;;;;;;4169698;28;20029;-73
2021/10/02 03:35:36;;;;;;;3.40;1.40;;;15.00;99.90;;;;;;4170879;28;20064;-73
2021/10/02 03:37:38;;;;;;;1.63;1.05;;;15.00;99.90;;;;;;4173072;28;20029;-73
2021/10/02 03:39:39;;;;;;;2.30;1.33;;;15.00;99.90;;;;;;4172269;28;20049;-73
2021/10/02 03:41:40;;;;;;;1.55;1.10;;;14.90;99.90;;;;;;4177400;28;20381;-73
2021/10/02 03:43:40;;;;;;;2.17;1.15;;;15.00;99.90;;;;;;4176006;28;20393;-73
2021/10/02 03:45:41;;;;;;;2.10;1.30;;;14.90;99.90;;;;;;4172132;28;20034;-75
2021/10/02 03:47:42;;;;;;;1.30;1.10;;;14.90;99.90;;;;;;4176211;28;20021;-74
2021/10/02 03:49:44;;;;;;;2.63;1.25;;;14.90;99.90;;;;;;4173935;28;20039;-74
2021/10/02 03:51:46;;;;;;;1.30;1.10;;;14.80;99.90;;;;;;4180827;28;20047;-74
2021/10/02 03:53:47;;;;;;;1.35;1.25;;;14.80;99.90;;;;;;4164972;28;20037;-74
2021/10/02 03:55:47;;;;;;;1.40;1.08;;;14.80;99.90;;;;;;4181795;28;20549;-74
2021/10/02 03:57:48;;;;;;;1.92;1.30;;;14.80;99.90;;;;;;4185189;28;20118;-74
2021/10/02 03:59:48;;;;;;;1.67;1.20;;;14.80;99.90;;;;;;4180570;28;20533;-74
2021/10/02 04:01:49;;;;;;;1.88;1.10;;;14.80;99.90;;;;;;4181506;28;20037;-74
2021/10/02 04:03:50;;;;;;;1.30;1.20;;;14.80;99.90;;;;;;4176296;28;20120;-75
2021/10/02 04:05:50;;;;;;;2.03;1.30;;;14.80;99.90;;;;;;4182672;28;20044;-74
2021/10/02 04:07:51;;;;;;;1.00;0.75;;;14.70;99.90;;;;;;4183796;28;20032;-74
2021/10/02 04:09:52;;;;;;;1.20;0.98;;;14.70;99.90;;;;;;4176993;28;20036;-75
2021/10/02 04:11:53;;;;;;;1.77;1.05;;;14.70;99.90;;;;;;4185326;28;20631;-74
2021/10/02 04:13:53;;;;;;;2.47;0.95;;;14.70;99.90;;;;;;4167530;28;20037;-74
2021/10/02 04:15:54;;;;;;;1.45;1.00;;;14.70;99.90;;;;;;4178280;28;20176;-74
2021/10/02 04:17:54;;;;;;;1.55;1.10;;;14.70;99.90;;;;;;4144579;28;20038;-75
2021/10/02 04:19:55;;;;;;;1.27;0.90;;;14.70;99.90;;;;;;4158408;28;20044;-74
2021/10/02 04:21:57;;;;;;;1.40;0.93;;;14.70;99.90;;;;;;4158119;28;20061;-74
2021/10/02 04:24:00;;;;;;;3.05;1.10;;;14.70;99.90;;;;;;4142230;28;20049;-74
2021/10/02 04:26:00;;;;;;;1.70;1.00;;;14.70;99.90;;;;;;4175351;28;20120;-75
2021/10/02 04:28:01;;;;;;;1.48;0.98;;;14.70;99.90;;;;;;4174894;28;20036;-74
2021/10/02 04:30:03;;;;;;;1.33;0.85;;;14.70;99.90;;;;;;4174692;28;20037;-75
2021/10/02 04:32:04;;;;;;;1.63;0.80;;;14.70;99.90;;;;;;4171988;28;20438;-74
2021/10/02 04:34:05;;;;;;;1.58;1.20;;;14.60;99.90;;;;;;4174276;28;20762;-75
2021/10/02 04:36:06;;;;;;;2.47;1.08;;;14.60;99.90;;;;;;4175331;28;20087;-74
2021/10/02 04:38:07;;;;;;;1.10;1.00;;;14.60;99.90;;;;;;4174184;28;20098;-75
2021/10/02 04:40:08;;;;;;;1.13;0.80;;;14.60;99.90;;;;;;4171019;28;20048;-74
2021/10/02 04:42:08;;;;;;;1.17;1.08;;;14.70;99.90;;;;;;4177253;28;20099;-74
2021/10/02 04:44:09;;;;;;;2.65;1.00;;;14.70;99.90;;;;;;4151549;28;20041;-75
2021/10/02 04:46:12;;;;;;;1.90;1.05;;;14.60;99.90;;;;;;4157523;28;20034;-74
2021/10/02 04:48:12;;;;;;;2.42;1.13;;;14.60;99.90;;;;;;4159123;28;20056;-75
2021/10/02 04:50:14;;;;;;;0.98;0.95;;;14.60;99.90;;;;;;4158148;28;20052;-75
2021/10/02 04:52:14;;;;;;;2.67;1.38;;;14.60;99.90;;;;;;4159895;28;20980;-74
2021/10/02 04:54:16;;;;;;;2.28;1.23;;;14.60;99.90;;;;;;4160191;28;20091;-74
2021/10/02 04:56:17;;;;;;;1.70;1.00;;;14.60;99.90;;;;;;4156633;28;20120;-74
2021/10/02 04:58:18;;;;;;;1.25;0.90;;;14.60;99.90;;;;;;4159572;28;20049;-75
2021/10/02 05:00:18;;;;;;;1.75;1.00;;;14.60;99.90;;;;;;4158107;28;20065;-75
2021/10/02 05:02:19;;;;;;;1.60;1.00;;;14.60;99.90;;;;;;4157034;28;20037;-75
2021/10/02 05:04:20;;;;;;;1.48;1.00;;;14.60;99.90;;;;;;4159169;28;20401;-75
2021/10/02 05:06:21;;;;;;;1.25;1.00;;;14.60;99.90;;;;;;4159201;28;20124;-75
2021/10/02 05:08:21;;;;;;;2.60;1.23;;;14.60;99.90;;;;;;4157284;28;20108;-75
2021/10/02 05:10:22;;;;;;;1.23;0.88;;;14.60;99.90;;;;;;4157951;28;20068;-75
2021/10/02 05:12:22;;;;;;;1.75;1.13;;;14.60;99.90;;;;;;4158926;28;20064;-75
2021/10/02 05:14:25;;;;;;;0.70;0.70;;;14.60;99.90;;;;;;4159617;28;20087;-75
2021/10/02 05:16:26;;;;;;;;;;;14.60;99.90;;;;;;4155716;28;20045;-74
2021/10/02 05:18:27;;;;;;;1.13;1.00;;;14.60;99.90;;;;;;4159104;28;19923;-74
2021/10/02 05:20:31;;;;;;;2.63;1.58;;;14.60;99.90;;;;;;4158479;28;20049;-75
2021/10/02 05:22:31;;;;;;;1.45;1.20;;;14.60;99.90;;;;;;4157699;28;20053;-74
2021/10/02 05:24:36;;;;;;;2.00;1.55;;;14.60;99.90;;;;;;4152570;28;20390;-75
2021/10/02 05:26:38;;;;;;;3.13;1.33;;;14.60;99.90;;;;;;4155398;28;20029;-75
2021/10/02 05:28:39;;;;;;;1.98;1.35;;;14.60;99.90;;;;;;4155591;28;20057;-72
2021/10/02 05:30:39;;;;;;;2.05;1.27;;;14.70;99.90;;;;;;4157466;28;20116;-72
2021/10/02 05:32:40;;;;;;;1.60;1.20;;;14.60;99.90;;;;;;4160473;28;20121;-72
2021/10/02 05:34:41;;;;;;;2.28;1.27;;;14.70;99.90;;;;;;4142033;28;20093;-72
2021/10/02 05:36:42;;;;;;;1.50;1.30;;;14.70;99.90;;;;;;4160285;28;21560;-72
2021/10/02 05:38:43;;;;;;;1.13;1.02;;;14.70;99.90;;;;;;4159878;28;20038;-72
2021/10/02 05:40:44;;;;;;;1.65;1.20;;;14.70;99.90;;;;;;4158991;28;20501;-73
2021/10/02 05:42:45;;;;;;;3.22;1.40;;;14.70;99.90;;;;;;4161083;28;20033;-72
2021/10/02 05:44:45;;;;;;;2.58;1.38;;;14.70;99.90;;;;;;4161232;28;20034;-72
2021/10/02 05:46:46;;;;;;;2.72;1.63;;;14.70;99.90;;;;;;4161256;28;20496;-72
2021/10/02 05:48:47;;;;;;;1.58;1.20;;;14.60;99.90;;;;;;4158977;28;20472;-72
2021/10/02 05:50:47;;;;;;;2.75;1.58;;;14.70;99.90;;;;;;4159837;28;20111;-72
2021/10/02 05:52:48;;;;;;;2.08;1.40;;;14.60;99.90;;;;;;4160443;28;20100;-73
2021/10/02 05:54:49;;;;;;;2.17;1.50;;;14.60;99.90;;;;;;4164168;28;20174;-72
2021/10/02 05:56:49;;;;;;;3.40;1.40;;;14.60;99.90;;;;;;4180524;28;20047;-72
2021/10/02 05:58:50;;;;;;;3.25;1.88;;;14.60;99.90;;;;;;4177441;28;20041;-72
2021/10/02 06:00:51;;;;;;;2.30;1.50;;;14.60;99.90;;;;;;4179301;28;20128;-72
2021/10/02 06:02:52;;;;;;;2.13;1.33;;;14.60;99.90;;;;;;4181710;28;20496;-72
2021/10/02 06:04:52;;;;;;;2.70;1.50;;;14.60;99.90;;;;;;4177749;28;20093;-72
2021/10/02 06:06:53;;;;;;;1.23;1.10;;;14.60;99.90;;;;;;4182625;28;20041;-72
2021/10/02 06:08:53;;;;;;;3.40;1.33;;;14.60;99.90;;;;;;4178084;28;20509;-73
2021/10/02 06:10:55;;;;;;;2.35;1.80;;;14.60;99.90;;;;;;4176768;28;20028;-72
2021/10/02 06:12:56;;;;;;;1.65;1.08;;;14.60;99.90;;;;;;4176845;28;20032;-72
2021/10/02 06:14:57;;;;;;;2.60;1.50;;;14.50;99.90;;;;;;4178293;28;20096;-73
2021/10/02 06:16:57;;;;;;;3.67;1.60;;;14.50;99.90;;;;;;4174318;28;21294;-74
2021/10/02 06:18:58;;;;;;;1.95;1.45;;;14.50;99.90;;;;;;4171463;28;20036;-74
2021/10/02 06:20:58;;;;;;;2.53;1.80;;;14.50;99.90;;;;;;4170415;28;20033;-74
2021/10/02 06:23:03;;;;;;;6.13;2.15;;;14.50;99.90;;;;;;4173629;28;20025;-74
2021/10/02 06:25:05;;;;;;;4.70;2.00;;;14.50;99.90;;;;;;4172453;28;20115;-74
2021/10/02 06:27:06;;;;;;;2.25;1.88;;;14.40;99.90;;;;;;4172961;28;20078;-74
2021/10/02 06:29:09;;;;;;;2.78;2.08;;;14.40;99.90;;;;;;4167901;28;20428;-74
2021/10/02 06:31:09;;;;;;;2.40;2.00;;;14.40;99.90;;;;;;4172497;28;20114;-74
2021/10/02 06:33:10;;;;;;;8.95;2.10;;;14.40;99.90;;;;;;4172985;28;20624;-74
2021/10/02 06:35:11;;;;;;;2.40;2.20;;;14.40;99.90;;;;;;4172588;28;20044;-74
2021/10/02 06:37:11;;;;;;;4.22;1.92;;;14.40;99.90;;;;;;4167507;28;20037;-74
2021/10/02 06:39:12;;;;;;;2.80;1.75;;;14.50;99.90;;;;;;4172697;28;20175;-75
2021/10/02 06:41:13;;;;;;;2.28;1.67;;;14.50;99.90;;;;;;4172922;28;20029;-74
2021/10/02 06:43:13;;;;;;;2.05;1.75;;;14.50;99.90;;;;;;4171218;28;20033;-74
2021/10/02 06:45:15;;;;;;;2.47;1.70;;;14.50;99.90;;;;;;4171989;28;20052;-75
2021/10/02 06:47:16;;;;;;;2.07;1.70;;;14.60;99.90;;;;;;4171763;28;20098;-74
2021/10/02 06:49:16;;;;;;;2.88;1.60;;;14.50;99.90;;;;;;4172937;28;20045;-75
2021/10/02 06:51:17;;;;;;;1.90;1.30;;;14.60;99.90;;;;;;4168866;28;20503;-74
2021/10/02 06:53:18;;;;;;;4.50;1.50;;;14.60;99.90;;;;;;4166791;28;20622;-75
2021/10/02 06:55:19;;;;;;;3.55;1.60;;;14.50;99.90;;;;;;4171408;28;20119;-74
2021/10/02 06:57:19;;;;;;;1.52;1.13;;;14.50;99.90;;;;;;4169974;28;20033;-75
2021/10/02 06:59:25;;;;;;;2.67;1.25;;;14.50;99.90;;;;;;4168781;28;20041;-75
2021/10/02 07:01:25;;;;;;;1.92;0.98;;;14.50;99.90;;;;;;4171300;28;20122;-74
2021/10/02 07:03:26;;;;;;;3.90;1.20;;;14.60;99.90;;;;;;4169627;28;20032;-75
2021/10/02 07:05:27;;;;;;;2.25;1.25;;;14.60;99.90;;;;;;4170801;28;20540;-74
2021/10/02 07:07:28;;;;;;;5.32;1.38;;;14.60;99.90;;;;;;4168566;28;20057;-74
2021/10/02 07:09:28;;;;;;;1.70;1.00;;;14.60;99.90;;;;;;4169264;28;20436;-74
2021/10/02 07:11:29;;;;;;;1.63;1.23;;;14.60;99.90;;;;;;4162738;28;20417;-75
2021/10/02 07:13:29;;;;;;;2.22;1.30;;;14.70;99.90;;;;;;4168234;28;20036;-75
2021/10/02 07:15:30;;;;;;;1.77;1.30;;;14.70;99.90;;;;;;4153010;28;20096;-75
2021/10/02 07:17:30;;;;;;;1.65;1.00;;;14.60;99.90;;;;;;4170308;28;21383;-75
2021/10/02 07:19:32;;;;;;;1.55;1.17;;;14.70;99.90;;;;;;4168834;28;20048;-75
2021/10/02 07:21:32;;;;;;;1.00;0.90;;;14.70;99.90;;;;;;4170755;28;20476;-74
2021/10/02 07:23:34;;;;;;;1.15;0.90;;;14.70;99.90;;;;;;4170631;28;20033;-75
2021/10/02 07:25:34;;;;;;;2.67;1.33;;;14.70;99.90;;;;;;4170384;28;20055;-75
2021/10/02 07:27:35;;;;;;;1.77;1.30;;;14.80;99.90;;;;;;4170666;28;20044;-74
2021/10/02 07:29:36;;;;;;;2.75;1.55;;;14.70;99.90;;;;;;4172066;28;20404;-74
2021/10/02 07:31:36;;;;;;;2.38;1.10;;;14.80;99.90;;;;;;4171166;28;20488;-75
2021/10/02 07:33:37;;;;;;;2.08;1.10;;;14.70;99.90;;;;;;4170150;28;20416;-75
2021/10/02 07:35:38;;;;;;;2.55;1.20;;;14.70;99.90;;;;;;4172395;28;20105;-75
2021/10/02 07:37:39;;;;;;;2.17;1.02;;;14.70;99.90;;;;;;4169086;28;20033;-75
2021/10/02 07:39:39;;;;;;;2.15;1.05;;;14.70;99.90;;;;;;4170319;28;20056;-75
2021/10/02 07:41:44;;;;;;;3.38;1.17;;;14.80;99.90;;;;;;4174043;28;20412;-75
2021/10/02 07:43:59;;;;;;;2.42;1.40;;;14.80;99.90;;;;;;4170873;28;20511;-75
2021/10/02 07:46:00;;;;;;;0.90;0.80;;;14.80;99.90;;;;;;4170442;28;20064;-75
2021/10/02 07:48:03;;;;;;;2.38;1.00;;;14.80;99.90;;;;;;4172031;28;20496;-75
2021/10/02 07:50:06;;;;;;;1.50;1.20;;;14.80;99.90;;;;;;4169633;28;20025;-75
2021/10/02 07:52:06;;;;;;;1.50;1.10;;;14.80;99.90;;;;;;4176743;28;20063;-75
2021/10/02 07:54:07;;;;;;;2.42;1.10;;;14.90;99.90;;;;;;4172554;28;20037;-75
2021/10/02 07:56:10;;;;;;;1.88;1.27;;;14.90;99.90;;;;;;4171385;28;20041;-75
2021/10/02 07:58:11;;;;;;;2.60;1.35;;;14.90;99.90;;;;;;4173143;28;20480;-75
2021/10/02 08:00:17;;;;;;;1.98;1.15;;;14.90;99.90;;;;;;4173220;28;20074;-75
2021/10/02 08:02:20;;;;;;;1.05;0.80;;;15.00;99.90;;;;;;4167027;28;20045;-75
2021/10/02 08:04:20;;;;;;;;;;;15.00;99.90;;;;;;4172060;28;20037;-75
2021/10/02 08:06:22;;;;;;;1.45;0.80;;;15.00;99.90;;;;;;4171933;28;19916;-75
2021/10/02 08:08:22;;;;;;;1.60;0.90;;;15.00;99.90;;;;;;4172063;28;21980;-75
2021/10/02 08:10:27;;;;;;;2.90;1.17;;;15.10;99.90;;;;;;4171342;28;20037;-75
2021/10/02 08:12:28;;;;;;;1.35;0.90;;;15.10;99.90;;;;;;4171057;28;20318;-75
2021/10/02 08:14:29;;;;;;;1.73;1.10;;;15.10;99.90;;;;;;4170797;28;20126;-75
2021/10/02 08:16:30;;;;;;;4.18;1.20;;;15.00;99.90;;;;;;4171762;28;20033;-75
2021/10/02 08:18:38;;;;;;;1.70;1.08;;;15.00;99.90;;;;;;4155896;28;20049;-75
2021/10/02 08:20:40;;;;;;;5.28;1.20;;;15.00;99.90;;;;;;4170161;28;20308;-75
2021/10/02 08:22:53;;;;;;;1.37;1.00;;;15.00;99.90;;;;;;4172653;28;20052;-75
2021/10/02 08:24:53;;;;;;;;;;;15.00;99.90;;;;;;4172795;28;20041;-75
2021/10/02 08:26:54;;;;;;;2.65;1.15;;;15.00;99.90;;;;;;4173403;28;19923;-75
2021/10/02 08:28:54;;;;;;;1.63;1.08;;;15.00;99.90;;;;;;4171116;28;20482;-75
2021/10/02 08:30:57;;;;;;;2.08;1.10;;;15.10;99.90;;;;;;4174440;28;20355;-75
2021/10/02 08:32:58;;;;;;;;;;;15.00;99.90;;;;;;4168980;28;20422;-75
2021/10/02 08:34:59;;;;;;;1.30;1.00;;;15.10;99.90;;;;;;4169837;28;20026;-75
2021/10/02 08:36:59;;;;;;;3.17;1.35;;;15.00;99.90;;;;;;4169217;28;20036;-75
2021/10/02 08:39:00;;;;;;;1.77;1.00;;;15.10;99.90;;;;;;4153295;28;20038;-75
2021/10/02 08:41:02;;;;;;;2.45;1.48;;;15.10;99.90;;;;;;4138523;28;20121;-75
2021/10/02 08:43:03;;;;;;;3.20;1.35;;;15.10;99.90;;;;;;4155331;28;20038;-75
2021/10/02 08:45:05;;;;;;;1.50;1.00;;;15.10;99.90;;;;;;4155516;28;20091;-75
2021/10/02 08:47:06;;;;;;;2.10;1.08;;;15.10;99.90;;;;;;4154275;28;20053;-75
2021/10/02 08:49:22;;;;;;;1.08;0.88;;;15.10;99.90;;;;;;4156574;28;20041;-75
2021/10/02 08:51:22;;;;;;;0.90;0.73;;;15.20;99.90;;;;;;4150800;28;20034;-75
2021/10/02 08:53:26;;;;;;;1.63;1.10;;;15.30;99.90;;;;;;4157299;28;20057;-75
2021/10/02 08:55:27;;;;;;;2.00;1.30;;;15.30;99.90;;;;;;4154777;28;20045;-75
2021/10/02 08:57:32;;;;;;;2.55;1.15;;;15.30;99.90;;;;;;4156155;28;20477;-76
2021/10/02 08:59:34;;;;;;;1.58;1.20;;;15.30;99.90;;;;;;4154956;28;20140;-75
2021/10/02 09:01:35;;;;;;;2.75;1.20;;;15.40;99.90;;;;;;4154327;28;20037;-75
2021/10/02 09:03:36;;;;;;;3.83;1.20;;;15.40;99.90;;;;;;4156878;28;20080;-75
2021/10/02 09:05:37;;;;;;;1.80;1.08;;;15.40;99.90;;;;;;4150963;28;20128;-75
2021/10/02 09:07:38;;;;;;;1.27;1.08;;;15.40;99.90;;;;;;4153407;28;20116;-75
2021/10/02 09:09:38;;;;;;;2.55;1.10;;;15.40;99.90;;;;;;4154037;28;20061;-75
2021/10/02 09:11:39;;;;;;;1.17;0.82;;;15.50;99.90;;;;;;4155050;28;20029;-75
2021/10/02 09:13:40;;;;;;;1.80;1.17;;;15.50;99.90;;;;;;4154515;28;20496;-75
2021/10/02 09:15:40;;;;;;;2.78;1.05;;;15.50;99.90;;;;;;4149522;28;20062;-75
2021/10/02 09:17:42;;;;;;;3.30;0.80;;;15.50;99.90;;;;;;4155109;28;20041;-75
2021/10/02 09:19:42;;;;;;;1.65;0.98;;;15.50;99.90;;;;;;4154413;28;20139;-75
2021/10/02 09:21:53;;;;;;;2.15;1.25;;;15.60;99.90;;;;;;4156294;28;20037;-75
2021/10/02 09:23:54;;;;;;;1.52;0.80;;;15.60;99.90;;;;;;4138043;28;20058;-75
2021/10/02 09:25:54;;;;;;;0.77;0.60;;;15.60;99.90;;;;;;4155172;28;20464;-75
2021/10/02 09:28:13;;;;;;;1.40;0.80;;;15.70;99.90;;;;;;4155007;28;20025;-75
2021/10/02 09:30:14;;;;;;;2.22;0.85;;;15.70;99.90;;;;;;4167712;28;20111;-76
2021/10/02 09:32:17;;;;;;;1.23;0.80;;;15.70;99.90;;;;;;4173314;28;20481;-75
2021/10/02 09:34:25;;;;;;;0.50;0.50;;;15.80;99.90;;;;;;4172000;28;20031;-75
2021/10/02 09:36:26;;;;;;;2.65;0.77;;;15.80;99.90;;;;;;4177210;28;20094;-74
2021/10/02 09:38:31;;;;;;;1.30;0.80;;;15.90;99.90;;;;;;4177882;28;20065;-75
2021/10/02 09:40:33;;;;;;;1.40;0.60;;;15.90;99.90;;;;;;4177023;28;20033;-75
2021/10/02 09:42:40;;;;;;;1.00;0.57;;;16.00;99.90;;;;;;4178457;28;20040;-75
2021/10/02 09:44:42;;;;;;;1.65;0.70;;;16.00;99.90;;;;;;4168718;28;20028;-75
2021/10/02 09:46:43;;;;;;;0.83;0.60;;;16.00;99.90;;;;;;4169886;28;20027;-75
2021/10/02 09:48:53;;;;;;;1.33;0.70;;;16.00;99.90;;;;;;4170456;28;20033;-75
2021/10/02 09:51:01;;;;;;;1.85;0.68;;;16.00;99.90;;;;;;4160352;28;20033;-75
2021/10/02 09:53:08;;;;;;;1.63;0.93;;;16.00;99.90;;;;;;4177999;28;20041;-75
2021/10/02 09:55:15;;;;;;;0.82;0.70;;;16.00;99.90;;;;;;4172934;28;20110;-75
2021/10/02 09:57:16;;;;;;;1.10;0.68;;;16.00;99.90;;;;;;4167790;28;20191;-75
2021/10/02 09:59:23;;;;;;;1.27;0.90;;;16.00;99.90;;;;;;4171249;28;20065;-75
2021/10/02 10:01:25;;;;;;;4.30;0.70;;;16.00;99.90;;;;;;4168981;28;20033;-75
2021/10/02 10:03:40;;;;;;;1.08;0.68;;;16.00;99.90;;;;;;4172071;28;20033;-75
2021/10/02 10:05:43;;;;;;;2.55;0.85;;;16.00;99.90;;;;;;4174690;28;20033;-75
2021/10/02 10:07:53;;;;;;;;;;;16.00;99.90;;;;;;4162461;28;20098;-74
2021/10/02 10:10:08;;;;;;;2.08;0.68;;;16.00;99.90;;;;;;4170694;28;20434;-75
2021/10/02 10:12:09;;;;;;;1.15;0.70;;;16.10;99.90;;;;;;4167834;28;20082;-75
2021/10/02 10:14:22;;;;;;;1.63;0.80;;;16.10;99.90;;;;;;4169599;28;20029;-75
2021/10/02 10:16:37;;;;;;;3.83;0.90;;;16.10;99.90;;;;;;4171892;28;20036;-75
2021/10/02 10:18:39;;;;;;;1.48;0.77;;;16.10;99.90;;;;;;4170633;28;20052;-75
2021/10/02 10:20:47;;;;;;;2.97;0.85;;;16.10;99.90;;;;;;4170667;28;20504;-75
2021/10/02 10:22:56;;;;;;;1.20;0.70;;;16.10;99.90;;;;;;4169473;28;20092;-75
2021/10/02 10:25:08;;;;;;;1.10;0.85;;;16.20;99.90;;;;;;4167777;28;20036;-75
2021/10/02 10:27:08;;;;;;;1.55;0.82;;;16.20;99.90;;;;;;4170451;28;20064;-75
2021/10/02 10:29:09;;;;;;;2.67;1.02;;;16.20;99.90;;;;;;4168388;28;20500;-75
2021/10/02 10:31:25;;;;;;;1.55;1.10;;;16.20;99.90;;;;;;4171378;28;20094;-75
2021/10/02 10:33:25;;;;;;;1.20;0.85;;;16.20;99.90;;;;;;4166464;28;20484;-75
2021/10/02 10:35:34;;;;;;;1.40;1.00;;;16.20;99.90;;;;;;4170566;28;20135;-75
2021/10/02 10:37:34;;;;;;;1.63;1.20;;;16.20;99.90;;;;;;4172108;28;20066;-75
2021/10/02 10:39:36;;;;;;;3.58;1.30;;;16.20;99.90;;;;;;4177279;28;20044;-75
2021/10/02 10:41:36;;;;;;;2.28;1.10;;;16.20;99.90;;;;;;4155150;28;20574;-75
2021/10/02 10:43:38;;;;;;;2.33;1.23;;;16.20;99.90;;;;;;4164832;28;20034;-75
2021/10/02 10:45:39;;;;;;;1.88;1.17;;;16.20;99.90;;;;;;4169651;28;20084;-75
2021/10/02 10:47:40;;;;;;;2.15;1.38;;;16.30;99.90;;;;;;4154272;28;20091;-75
2021/10/02 10:49:40;;;;;;;1.35;1.08;;;16.30;99.90;;;;;;4171236;28;20044;-75
2021/10/02 10:51:43;;;;;;;1.85;1.20;;;16.30;99.90;;;;;;4169416;28;20029;-75
2021/10/02 10:53:48;;;;;;;2.60;1.70;;;16.30;99.90;;;;;;4171698;28;20037;-75
2021/10/02 10:55:53;;;;;;;6.38;1.58;;;16.30;99.90;;;;;;4170745;28;20270;-75
2021/10/02 10:57:57;;;;;;;2.53;1.20;;;16.30;99.90;;;;;;4168152;28;20087;-75
2021/10/02 10:59:57;;;;;;;1.38;0.93;;;16.30;99.90;;;;;;4171340;28;20064;-75
2021/10/02 11:01:59;;;;;;;2.38;1.00;;;16.30;99.90;;;;;;4169507;28;20444;-75
2021/10/02 11:04:00;;;;;;;2.35;1.17;;;16.40;99.90;;;;;;4168640;28;24934;-75
2021/10/02 11:06:01;;;;;;;1.45;1.00;;;16.40;99.90;;;;;;4170741;28;20045;-75
2021/10/02 11:08:02;;;;;;;2.33;1.38;;;16.50;99.90;;;;;;4170796;28;20422;-75
2021/10/02 11:10:03;;;;;;;2.25;1.20;;;16.40;99.90;;;;;;4169961;28;20040;-75
2021/10/02 11:12:11;;;;;;;2.38;1.08;;;16.50;99.90;;;;;;4170096;28;20033;-75
2021/10/02 11:14:14;;;;;;;2.17;1.38;;;16.50;99.90;;;;;;4171130;28;20029;-75
2021/10/02 11:16:35;;;;;;;2.00;1.30;;;16.60;99.90;;;;;;4169911;28;20039;-75
2021/10/02 11:18:45;;;;;;;3.75;1.02;;;16.60;99.90;;;;;;4169759;28;20055;-74
2021/10/02 11:20:58;;;;;;;1.48;0.95;;;16.70;99.90;;;;;;4166710;28;20041;-75
2021/10/02 11:23:42;;;;;;;1.73;1.08;;;16.60;99.90;;;;;;4172539;28;20037;-75
2021/10/02 11:25:42;;;;;;;1.52;1.00;;;16.70;99.90;;;;;;4171840;28;20677;-75
2021/10/02 11:27:43;;;;;;;2.25;1.10;;;16.70;99.90;;;;;;4169645;28;20112;-75
2021/10/02 11:29:46;;;;;;;3.53;1.60;;;16.70;99.90;;;;;;4167149;28;20041;-74
2021/10/02 11:31:49;;;;;;;2.60;1.23;;;16.80;99.90;;;;;;4163991;28;20128;-74
2021/10/02 11:33:51;;;;;;;2.72;1.17;;;16.80;99.90;;;;;;4167258;28;20060;-75
2021/10/02 11:35:52;;;;;;;4.88;1.63;;;16.80;99.90;;;;;;4169933;28;20523;-74